createdAt,value
2019-02-21T00:01:49.098Z,7.87
2019-02-21T00:04:17.688Z,6.00
2019-02-21T00:06:45.728Z,6.13
2019-02-21T00:09:13.784Z,6.60
2019-02-21T00:11:41.838Z,7.27
2019-02-21T00:14:09.890Z,7.23
2019-02-21T00:16:37.944Z,6.17
2019-02-21T00:19:06.046Z,6.67
2019-02-21T00:21:34.222Z,6.53
2019-02-21T00:24:02.279Z,6.83
2019-02-21T00:26:30.337Z,7.33
2019-02-21T00:28:58.390Z,7.57
2019-02-21T00:31:26.434Z,6.33
2019-02-21T00:33:55.039Z,7.13
2019-02-21T00:36:23.134Z,7.20
2019-02-21T00:38:51.189Z,6.70
2019-02-21T00:41:19.250Z,7.23
2019-02-21T00:43:47.318Z,7.50
2019-02-21T00:46:15.380Z,7.23
2019-02-21T00:48:43.446Z,7.73
2019-02-21T00:51:11.504Z,7.70
2019-02-21T00:53:39.550Z,7.40
2019-02-21T00:56:07.614Z,8.13
2019-02-21T00:58:35.663Z,8.70
2019-02-21T01:01:03.713Z,7.50
2019-02-21T01:03:31.786Z,8.33
2019-02-21T01:05:59.844Z,7.13
2019-02-21T01:08:27.906Z,7.77
2019-02-21T01:10:55.959Z,6.87
2019-02-21T01:13:24.014Z,7.20
2019-02-21T01:15:52.062Z,6.90
2019-02-21T01:18:20.131Z,6.80
2019-02-21T01:20:48.189Z,6.43
2019-02-21T01:23:16.248Z,7.00
2019-02-21T01:25:44.298Z,7.73
2019-02-21T01:28:12.350Z,8.10
2019-02-21T01:30:40.400Z,7.23
2019-02-21T01:33:08.446Z,8.37
2019-02-21T01:35:37.256Z,7.43
2019-02-21T01:38:05.351Z,8.07
2019-02-21T01:40:33.423Z,8.50
2019-02-21T01:43:01.493Z,7.90
2019-02-21T01:45:29.535Z,6.67
2019-02-21T01:47:57.611Z,7.27
2019-02-21T01:50:25.659Z,6.07
2019-02-21T01:52:53.706Z,6.60
2019-02-21T01:55:21.783Z,6.67
2019-02-21T01:57:49.834Z,7.10
2019-02-21T02:00:17.888Z,6.20
2019-02-21T02:02:46.038Z,6.67
2019-02-21T02:05:14.094Z,6.60
2019-02-21T02:07:42.142Z,5.93
2019-02-21T02:10:10.277Z,6.23
2019-02-21T02:12:38.338Z,5.97
2019-02-21T02:15:08.006Z,5.03
2019-02-21T02:17:36.077Z,5.80
2019-02-21T02:20:05.042Z,5.77
2019-02-21T02:22:33.166Z,6.10
2019-02-21T02:25:01.223Z,6.03
2019-02-21T02:27:29.303Z,7.13
2019-02-21T02:29:57.351Z,5.63
2019-02-21T02:32:25.402Z,6.57
2019-02-21T02:34:53.462Z,5.37
2019-02-21T02:37:21.895Z,5.53
2019-02-21T02:39:49.938Z,5.50
2019-02-21T02:42:17.995Z,5.47
2019-02-21T02:44:46.065Z,5.60
2019-02-21T02:47:14.115Z,6.50
2019-02-21T02:49:42.170Z,5.83
2019-02-21T02:52:10.275Z,6.00
2019-02-21T02:54:38.370Z,5.27
2019-02-21T02:57:06.439Z,5.80
2019-02-21T02:59:40.946Z,6.43
2019-02-21T03:02:04.327Z,6.90
2019-02-21T03:04:32.466Z,6.13
2019-02-21T03:07:00.554Z,6.60
2019-02-21T03:09:28.738Z,6.20
2019-02-21T03:11:56.834Z,5.73
2019-02-21T03:14:24.923Z,5.67
2019-02-21T03:16:53.050Z,5.53
2019-02-21T03:19:21.094Z,6.13
2019-02-21T03:21:49.145Z,5.57
2019-02-21T03:24:17.199Z,7.00
2019-02-21T03:26:45.242Z,5.43
2019-02-21T03:29:13.302Z,6.10
2019-02-21T03:31:53.393Z,5.47
2019-02-21T03:34:11.144Z,6.33
2019-02-21T03:36:39.193Z,5.93
2019-02-21T03:39:07.626Z,6.67
2019-02-21T03:41:35.659Z,6.60
2019-02-21T03:44:03.765Z,5.77
2019-02-21T03:46:31.808Z,5.30
2019-02-21T03:48:59.855Z,5.67
2019-02-21T03:51:29.182Z,5.27
2019-02-21T03:53:57.326Z,5.60
2019-02-21T03:56:25.442Z,6.00
2019-02-21T03:58:53.488Z,5.73
2019-02-21T04:01:21.554Z,7.53
2019-02-21T04:03:49.598Z,6.47
2019-02-21T04:06:17.651Z,5.63
2019-02-21T04:08:45.708Z,6.87
2019-02-21T04:11:13.743Z,6.30
2019-02-21T04:13:41.817Z,5.90
2019-02-21T04:16:09.866Z,6.53
2019-02-21T04:18:37.923Z,5.53
2019-02-21T04:21:05.971Z,6.27
2019-02-21T04:23:34.051Z,6.37
2019-02-21T04:26:02.134Z,5.47
2019-02-21T04:28:30.185Z,5.67
2019-02-21T04:30:58.247Z,6.07
2019-02-21T04:33:26.298Z,5.47
2019-02-21T04:35:54.345Z,5.20
2019-02-21T04:38:22.406Z,5.10
2019-02-21T04:40:50.448Z,5.13
2019-02-21T04:43:18.491Z,4.53
2019-02-21T04:45:46.542Z,5.60
2019-02-21T04:48:14.613Z,5.20
2019-02-21T04:50:42.646Z,5.00
2019-02-21T04:53:10.712Z,5.10
2019-02-21T04:55:38.759Z,5.40
2019-02-21T04:58:07.188Z,5.50
2019-02-21T05:00:35.235Z,5.67
2019-02-21T05:03:03.288Z,5.60
2019-02-21T05:05:31.356Z,6.07
2019-02-21T05:07:59.407Z,5.03
2019-02-21T05:10:27.463Z,6.00
2019-02-21T05:12:56.111Z,6.17
2019-02-21T05:15:24.178Z,6.23
2019-02-21T05:17:52.241Z,6.27
2019-02-21T05:20:20.314Z,5.90
2019-02-21T05:22:48.357Z,6.50
2019-02-21T05:25:16.399Z,5.97
2019-02-21T05:27:46.051Z,6.33
2019-02-21T05:30:15.734Z,6.60
2019-02-21T05:32:48.513Z,9.13
2019-02-21T05:35:18.237Z,8.70
2019-02-21T05:37:47.926Z,7.83
2019-02-21T05:40:28.608Z,8.40
2019-02-21T05:42:57.926Z,7.13
2019-02-21T05:45:27.610Z,9.23
2019-02-21T05:48:09.104Z,9.90
2019-02-21T05:50:38.770Z,8.27
2019-02-21T05:53:20.180Z,8.73
2019-02-21T05:55:55.787Z,9.13
2019-02-21T05:58:43.306Z,16.07
2019-02-21T06:01:15.670Z,16.67
2019-02-21T06:03:45.366Z,7.87
2019-02-21T06:06:17.221Z,7.10
2019-02-21T06:08:49.223Z,6.47
2019-02-21T06:11:37.214Z,8.67
2019-02-21T06:14:09.558Z,11.73
2019-02-21T06:16:39.246Z,8.70
2019-02-21T06:19:08.971Z,6.50
2019-02-21T06:21:53.759Z,7.87
2019-02-21T06:24:26.120Z,7.60
2019-02-21T06:27:12.396Z,7.90
2019-02-21T06:29:58.516Z,9.23
2019-02-21T06:32:26.579Z,7.70
2019-02-21T06:34:54.634Z,6.87
2019-02-21T06:37:22.695Z,7.43
2019-02-21T06:39:50.762Z,6.63
2019-02-21T06:42:18.814Z,6.47
2019-02-21T06:44:46.887Z,6.03
2019-02-21T06:47:14.947Z,6.33
2019-02-21T06:49:43.010Z,8.90
2019-02-21T06:52:15.647Z,9.80
2019-02-21T06:54:43.859Z,8.50
2019-02-21T06:57:11.964Z,7.50
2019-02-21T06:59:44.536Z,8.43
2019-02-21T07:02:09.757Z,8.30
2019-02-21T07:04:37.807Z,8.80
2019-02-21T07:07:05.854Z,8.63
2019-02-21T07:09:33.902Z,9.03
2019-02-21T07:12:01.962Z,9.23
2019-02-21T07:14:30.006Z,9.23
2019-02-21T07:16:58.271Z,7.73
2019-02-21T07:19:26.384Z,9.07
2019-02-21T07:21:54.445Z,14.73
2019-02-21T07:24:22.666Z,15.53
2019-02-21T07:26:50.714Z,14.17
2019-02-21T07:29:18.782Z,8.93
2019-02-21T07:31:49.278Z,10.23
2019-02-21T07:34:16.623Z,9.90
2019-02-21T07:36:44.681Z,10.30
2019-02-21T07:39:18.438Z,10.57
2019-02-21T07:41:43.231Z,11.30
2019-02-21T07:44:12.525Z,10.83
2019-02-21T07:46:40.694Z,11.20
2019-02-21T07:49:08.762Z,10.30
2019-02-21T07:51:36.806Z,11.07
2019-02-21T07:54:04.873Z,12.00
2019-02-21T07:56:41.473Z,13.30
2019-02-21T07:59:02.686Z,11.10
2019-02-21T08:01:30.746Z,12.47
2019-02-21T08:03:58.808Z,14.20
2019-02-21T08:06:26.863Z,13.70
2019-02-21T08:08:54.911Z,13.20
2019-02-21T08:11:22.997Z,11.90
2019-02-21T08:13:51.032Z,12.83
2019-02-21T08:16:19.090Z,12.43
2019-02-21T08:18:48.060Z,12.37
2019-02-21T08:21:16.178Z,13.23
2019-02-21T08:23:50.550Z,13.87
2019-02-21T08:26:14.050Z,12.37
2019-02-21T08:28:42.094Z,11.87
2019-02-21T08:31:10.183Z,12.23
2019-02-21T08:33:39.871Z,12.73
2019-02-21T08:36:07.929Z,13.30
2019-02-21T08:38:36.002Z,13.17
2019-02-21T08:41:04.062Z,13.53
2019-02-21T08:43:32.115Z,12.90
2019-02-21T08:46:00.170Z,14.07
2019-02-21T08:48:28.274Z,14.40
2019-02-21T08:50:56.391Z,14.60
2019-02-21T08:53:24.446Z,14.83
2019-02-21T08:55:52.502Z,15.67
2019-02-21T08:58:20.812Z,14.97
2019-02-21T09:00:48.887Z,16.53
2019-02-21T09:03:18.153Z,16.50
2019-02-21T09:05:46.243Z,16.80
2019-02-21T09:08:16.623Z,16.63
2019-02-21T09:10:44.108Z,18.13
2019-02-21T09:13:12.652Z,17.67
2019-02-21T09:15:40.748Z,17.87
2019-02-21T09:18:08.827Z,17.73
2019-02-21T09:20:36.902Z,18.93
2019-02-21T09:23:04.956Z,19.47
2019-02-21T09:25:33.018Z,18.83
2019-02-21T09:28:01.072Z,19.87
2019-02-21T09:30:29.167Z,19.80
2019-02-21T09:32:57.262Z,18.63
2019-02-21T09:35:25.310Z,20.20
2019-02-21T09:37:53.362Z,20.33
2019-02-21T09:40:21.601Z,21.97
2019-02-21T09:42:49.661Z,21.90
2019-02-21T09:45:18.206Z,21.27
2019-02-21T09:47:46.250Z,21.10
2019-02-21T09:50:14.311Z,21.40
2019-02-21T09:52:42.374Z,22.20
2019-02-21T09:55:14.233Z,22.47
2019-02-21T09:57:42.303Z,20.70
2019-02-21T10:00:14.343Z,20.30
2019-02-21T10:02:42.500Z,21.57
2019-02-21T10:05:10.623Z,20.97
2019-02-21T10:07:38.670Z,19.43
2019-02-21T10:10:08.631Z,20.20
2019-02-21T10:12:36.682Z,21.03
2019-02-21T10:15:06.351Z,20.40
2019-02-21T10:17:34.448Z,19.37
2019-02-21T10:20:04.247Z,20.17
2019-02-21T10:22:32.411Z,19.80
2019-02-21T10:25:00.486Z,20.27
2019-02-21T10:27:28.554Z,20.73
2019-02-21T10:29:56.610Z,20.43
2019-02-21T10:32:24.666Z,20.20
2019-02-21T10:34:53.170Z,20.20
2019-02-21T10:37:21.276Z,22.57
2019-02-21T10:39:49.320Z,21.20
2019-02-21T10:42:17.380Z,21.87
2019-02-21T10:44:45.945Z,20.83
2019-02-21T10:47:13.978Z,21.00
2019-02-21T10:49:42.035Z,21.27
2019-02-21T10:52:11.357Z,22.63
2019-02-21T10:54:39.419Z,22.83
2019-02-21T10:57:07.474Z,21.57
2019-02-21T10:59:45.947Z,20.40
2019-02-21T11:02:05.360Z,20.73
2019-02-21T11:04:33.404Z,21.30
2019-02-21T11:07:01.473Z,21.73
2019-02-21T11:09:29.547Z,20.97
2019-02-21T11:11:57.610Z,19.70
2019-02-21T11:14:25.665Z,21.37
2019-02-21T11:16:53.735Z,21.63
2019-02-21T11:19:21.792Z,20.53
2019-02-21T11:21:50.831Z,20.17
2019-02-21T11:24:18.926Z,21.67
2019-02-21T11:26:46.970Z,21.70
2019-02-21T11:29:15.084Z,20.70
2019-02-21T11:31:43.178Z,19.07
2019-02-21T11:34:11.222Z,20.77
2019-02-21T11:36:39.270Z,19.60
2019-02-21T11:39:07.432Z,19.67
2019-02-21T11:41:35.574Z,21.03
2019-02-21T11:44:03.635Z,20.93
2019-02-21T11:46:31.679Z,21.37
2019-02-21T11:48:59.724Z,20.03
2019-02-21T11:51:28.557Z,20.07
2019-02-21T11:53:56.752Z,18.23
2019-02-21T11:56:24.799Z,20.10
2019-02-21T11:58:52.852Z,22.73
2019-02-21T12:01:20.907Z,18.57
2019-02-21T12:03:48.944Z,18.53
2019-02-21T12:06:17.019Z,19.70
2019-02-21T12:08:45.072Z,19.33
2019-02-21T12:11:13.126Z,18.80
2019-02-21T12:13:41.170Z,18.97
2019-02-21T12:16:10.061Z,20.67
2019-02-21T12:18:38.202Z,20.03
2019-02-21T12:21:06.287Z,19.90
2019-02-21T12:23:34.397Z,19.57
2019-02-21T12:26:02.469Z,21.60
2019-02-21T12:28:30.519Z,21.10
2019-02-21T12:30:58.603Z,22.00
2019-02-21T12:33:26.671Z,20.27
2019-02-21T12:35:54.717Z,20.07
2019-02-21T12:38:22.791Z,19.63
2019-02-21T12:40:50.826Z,21.13
2019-02-21T12:43:18.898Z,20.93
2019-02-21T12:45:46.956Z,20.13
2019-02-21T12:48:15.010Z,20.47
2019-02-21T12:50:44.475Z,19.63
2019-02-21T12:53:12.822Z,19.97
2019-02-21T12:55:40.877Z,19.83
2019-02-21T12:58:09.004Z,20.97
2019-02-21T13:00:37.064Z,21.33
2019-02-21T13:03:05.246Z,20.10
2019-02-21T13:05:40.987Z,20.67
2019-02-21T13:08:03.090Z,18.57
2019-02-21T13:10:31.202Z,18.80
2019-02-21T13:12:59.262Z,20.23
2019-02-21T13:15:27.322Z,19.93
2019-02-21T13:17:55.372Z,17.90
2019-02-21T13:20:23.430Z,20.00
2019-02-21T13:22:51.502Z,19.87
2019-02-21T13:25:19.556Z,19.87
2019-02-21T13:27:47.606Z,19.63
2019-02-21T13:30:16.242Z,19.20
2019-02-21T13:32:44.302Z,19.80
2019-02-21T13:35:12.410Z,19.73
2019-02-21T13:37:40.524Z,19.40
2019-02-21T13:40:09.746Z,19.80
2019-02-21T13:42:37.806Z,20.57
2019-02-21T13:45:06.632Z,19.43
2019-02-21T13:47:35.962Z,19.50
2019-02-21T13:50:05.715Z,19.13
2019-02-21T13:52:33.762Z,18.50
2019-02-21T13:55:01.818Z,19.07
2019-02-21T13:57:29.866Z,17.47
2019-02-21T13:59:58.558Z,18.40
2019-02-21T14:02:26.715Z,18.43
2019-02-21T14:04:54.774Z,19.57
2019-02-21T14:07:22.826Z,19.90
2019-02-21T14:09:51.774Z,19.47
2019-02-21T14:12:19.823Z,19.77
2019-02-21T14:14:47.886Z,19.53
2019-02-21T14:17:15.942Z,18.73
2019-02-21T14:19:44.000Z,19.80
2019-02-21T14:22:12.046Z,19.40
2019-02-21T14:24:40.104Z,21.47
2019-02-21T14:27:08.922Z,20.20
2019-02-21T14:29:39.498Z,18.20
2019-02-21T14:32:06.867Z,19.30
2019-02-21T14:34:34.964Z,19.13
2019-02-21T14:37:03.019Z,18.43
2019-02-21T14:39:31.073Z,20.30
2019-02-21T14:41:59.135Z,19.17
2019-02-21T14:44:27.200Z,20.30
2019-02-21T14:46:55.249Z,20.30
2019-02-21T14:49:25.660Z,17.83
2019-02-21T14:51:53.870Z,18.53
2019-02-21T14:54:22.050Z,17.90
2019-02-21T14:56:50.117Z,18.53
2019-02-21T14:59:19.906Z,18.77
2019-02-21T15:01:48.668Z,17.77
2019-02-21T15:04:16.758Z,18.33
2019-02-21T15:06:44.815Z,18.67
2019-02-21T15:09:12.906Z,18.90
2019-02-21T15:11:40.963Z,19.10
2019-02-21T15:14:09.020Z,19.60
2019-02-21T15:16:37.067Z,19.70
2019-02-21T15:19:05.877Z,18.83
2019-02-21T15:21:34.079Z,18.80
2019-02-21T15:24:02.165Z,19.23
2019-02-21T15:26:30.210Z,18.17
2019-02-21T15:29:00.063Z,19.57
2019-02-21T15:31:28.042Z,20.17
2019-02-21T15:33:56.099Z,19.47
2019-02-21T15:36:24.143Z,19.30
2019-02-21T15:38:52.194Z,18.83
2019-02-21T15:41:20.339Z,19.63
2019-02-21T15:43:48.427Z,19.83
2019-02-21T15:46:16.470Z,19.37
2019-02-21T15:48:44.883Z,19.67
2019-02-21T15:51:13.031Z,19.40
2019-02-21T15:53:41.071Z,18.30
2019-02-21T15:56:09.137Z,20.13
2019-02-21T15:58:37.203Z,19.67
2019-02-21T16:01:05.264Z,20.37
2019-02-21T16:03:33.306Z,20.37
2019-02-21T16:06:01.367Z,20.97
2019-02-21T16:08:29.435Z,20.80
2019-02-21T16:10:57.490Z,21.20
2019-02-21T16:13:25.654Z,21.10
2019-02-21T16:15:53.780Z,20.67
2019-02-21T16:18:21.842Z,19.83
2019-02-21T16:20:49.910Z,19.10
2019-02-21T16:23:19.401Z,20.73
2019-02-21T16:25:47.510Z,20.37
2019-02-21T16:28:15.573Z,20.20
2019-02-21T16:30:43.655Z,20.03
2019-02-21T16:33:11.706Z,20.33
2019-02-21T16:35:39.773Z,20.40
2019-02-21T16:38:07.819Z,19.40
2019-02-21T16:40:35.967Z,19.30
2019-02-21T16:43:04.016Z,20.83
2019-02-21T16:45:42.972Z,19.37
2019-02-21T16:48:01.844Z,21.47
2019-02-21T16:50:30.351Z,21.37
2019-02-21T16:52:58.559Z,21.53
2019-02-21T16:55:26.602Z,21.07
2019-02-21T16:57:54.659Z,20.57
2019-02-21T17:00:23.382Z,21.10
2019-02-21T17:02:51.471Z,20.23
2019-02-21T17:05:19.642Z,21.50
2019-02-21T17:07:47.722Z,20.67
2019-02-21T17:10:16.157Z,21.03
2019-02-21T17:12:44.192Z,20.43
2019-02-21T17:15:12.915Z,21.67
2019-02-21T17:17:40.980Z,21.23
2019-02-21T17:20:10.561Z,22.87
2019-02-21T17:22:38.626Z,21.50
2019-02-21T17:25:10.384Z,20.13
2019-02-21T17:27:38.434Z,21.97
2019-02-21T17:30:08.033Z,20.67
2019-02-21T17:32:36.084Z,21.67
2019-02-21T17:35:04.726Z,23.97
2019-02-21T17:37:32.782Z,21.97
2019-02-21T17:40:00.830Z,21.93
2019-02-21T17:42:28.898Z,22.10
2019-02-21T17:44:56.961Z,22.07
2019-02-21T17:47:24.999Z,21.47
2019-02-21T17:49:53.076Z,21.00
2019-02-21T17:52:21.115Z,23.27
2019-02-21T17:54:49.163Z,22.70
2019-02-21T17:57:17.231Z,22.17
2019-02-21T17:59:45.283Z,21.90
2019-02-21T18:02:13.350Z,22.93
2019-02-21T18:04:41.412Z,22.33
2019-02-21T18:07:09.475Z,21.63
2019-02-21T18:09:37.523Z,22.47
2019-02-21T18:12:05.659Z,22.10
2019-02-21T18:14:33.754Z,21.90
2019-02-21T18:17:01.800Z,22.07
2019-02-21T18:19:29.858Z,22.60
2019-02-21T18:21:57.909Z,22.47
2019-02-21T18:24:25.982Z,23.47
2019-02-21T18:26:54.042Z,22.73
2019-02-21T18:29:22.100Z,22.97
2019-02-21T18:31:50.158Z,23.03
2019-02-21T18:34:18.202Z,22.37
2019-02-21T18:36:46.258Z,21.57
2019-02-21T18:39:14.399Z,22.63
2019-02-21T18:41:42.477Z,22.50
2019-02-21T18:44:10.539Z,22.43
2019-02-21T18:46:38.594Z,22.97
2019-02-21T18:49:06.644Z,23.37
2019-02-21T18:51:35.625Z,22.07
2019-02-21T18:54:03.804Z,22.87
2019-02-21T18:56:31.825Z,24.60
2019-02-21T18:58:59.884Z,21.33
2019-02-21T19:01:27.928Z,23.57
2019-02-21T19:03:56.001Z,23.90
2019-02-21T19:06:24.054Z,23.53
2019-02-21T19:08:52.102Z,23.33
2019-02-21T19:11:20.169Z,23.73
2019-02-21T19:13:48.231Z,23.23
2019-02-21T19:16:16.438Z,22.90
2019-02-21T19:18:44.537Z,22.17
2019-02-21T19:21:12.760Z,21.83
2019-02-21T19:23:40.815Z,25.03
2019-02-21T19:26:08.884Z,22.23
2019-02-21T19:28:36.950Z,22.57
2019-02-21T19:31:06.538Z,21.43
2019-02-21T19:33:34.691Z,22.13
2019-02-21T19:36:02.782Z,23.07
2019-02-21T19:38:30.834Z,20.83
2019-02-21T19:41:00.177Z,19.90
2019-02-21T19:43:28.277Z,20.80
2019-02-21T19:45:56.348Z,20.57
2019-02-21T19:48:24.401Z,20.60
2019-02-21T19:50:52.448Z,19.87
2019-02-21T19:53:20.515Z,20.00
2019-02-21T19:55:48.595Z,20.00
2019-02-21T19:58:16.651Z,19.83
2019-02-21T20:00:45.162Z,20.80
2019-02-21T20:03:13.206Z,19.07
2019-02-21T20:05:41.339Z,18.83
2019-02-21T20:08:20.432Z,20.17
2019-02-21T20:10:39.248Z,20.90
2019-02-21T20:13:08.946Z,19.03
2019-02-21T20:15:37.015Z,18.97
2019-02-21T20:18:05.230Z,19.77
2019-02-21T20:20:33.357Z,19.73
2019-02-21T20:23:01.414Z,19.80
2019-02-21T20:25:29.497Z,19.10
2019-02-21T20:27:57.526Z,20.80
2019-02-21T20:30:25.847Z,20.27
2019-02-21T20:32:53.934Z,19.17
2019-02-21T20:35:22.014Z,20.57
2019-02-21T20:37:50.077Z,18.73
2019-02-21T20:40:18.124Z,20.80
2019-02-21T20:42:46.470Z,19.17
2019-02-21T20:45:14.930Z,18.63
2019-02-21T20:47:42.982Z,19.70
2019-02-21T20:50:12.585Z,18.23
2019-02-21T20:52:40.638Z,18.67
2019-02-21T20:55:09.853Z,18.47
2019-02-21T20:57:37.993Z,18.57
2019-02-21T21:00:07.588Z,18.07
2019-02-21T21:02:35.651Z,17.53
2019-02-21T21:05:04.167Z,17.43
2019-02-21T21:07:32.249Z,17.17
2019-02-21T21:10:00.345Z,17.33
2019-02-21T21:12:28.446Z,18.03
2019-02-21T21:14:56.494Z,16.63
2019-02-21T21:17:24.578Z,17.83
2019-02-21T21:19:52.639Z,18.40
2019-02-21T21:22:20.794Z,17.73
2019-02-21T21:24:48.850Z,17.87
2019-02-21T21:27:16.910Z,19.03
2019-02-21T21:29:44.994Z,18.87
2019-02-21T21:32:13.066Z,19.53
2019-02-21T21:34:41.162Z,19.47
2019-02-21T21:37:09.212Z,18.83
2019-02-21T21:39:37.272Z,21.00
2019-02-21T21:42:05.340Z,18.93
2019-02-21T21:44:33.391Z,21.33
2019-02-21T21:47:01.450Z,19.73
2019-02-21T21:49:29.542Z,19.70
2019-02-21T21:52:01.537Z,19.77
2019-02-21T21:54:29.631Z,19.47
2019-02-21T21:56:57.682Z,18.83
2019-02-21T21:59:25.735Z,19.07
2019-02-21T22:01:53.818Z,20.13
2019-02-21T22:04:21.889Z,19.33
2019-02-21T22:06:49.952Z,19.13
2019-02-21T22:09:18.014Z,19.87
2019-02-21T22:11:46.060Z,23.13
2019-02-21T22:14:14.126Z,24.77
2019-02-21T22:16:42.177Z,24.20
2019-02-21T22:19:10.222Z,24.13
2019-02-21T22:21:38.272Z,23.50
2019-02-21T22:24:06.334Z,24.47
2019-02-21T22:26:34.442Z,23.50
2019-02-21T22:29:02.530Z,23.97
2019-02-21T22:31:30.575Z,23.30
2019-02-21T22:33:58.635Z,25.80
2019-02-21T22:36:26.694Z,26.20
2019-02-21T22:38:54.753Z,26.03
2019-02-21T22:41:22.802Z,26.23
2019-02-21T22:43:50.878Z,27.10
2019-02-21T22:46:18.936Z,26.37
2019-02-21T22:48:47.607Z,25.30
2019-02-21T22:51:15.710Z,25.60
2019-02-21T22:53:43.774Z,25.53
2019-02-21T22:56:11.820Z,26.23
2019-02-21T22:58:45.120Z,25.80
2019-02-21T23:01:20.520Z,26.53
2019-02-21T23:03:49.741Z,26.40
2019-02-21T23:06:22.048Z,27.23
2019-02-21T23:08:51.363Z,26.07
2019-02-21T23:11:19.429Z,25.50
2019-02-21T23:13:47.616Z,25.97
2019-02-21T23:16:15.672Z,24.93
2019-02-21T23:18:43.721Z,27.53
2019-02-21T23:21:11.773Z,25.97
2019-02-21T23:23:39.839Z,25.57
2019-02-21T23:26:07.889Z,25.93
2019-02-21T23:28:35.938Z,25.43
2019-02-21T23:31:03.996Z,26.03
2019-02-21T23:33:33.682Z,25.33
2019-02-21T23:36:01.782Z,27.10
2019-02-21T23:38:29.842Z,28.13
2019-02-21T23:40:57.895Z,26.83
2019-02-21T23:43:25.954Z,26.87
2019-02-21T23:45:54.003Z,27.57
2019-02-21T23:48:22.054Z,27.20
2019-02-21T23:50:50.202Z,28.67
2019-02-21T23:53:18.263Z,28.23
2019-02-21T23:55:46.314Z,27.13
2019-02-21T23:58:14.380Z,27.57
